Time;durP1;ratioP1;P1;durP2;ratioP2;P2;SDS_P1;SDS_P2;PMS_P1;PMS_P2;Temp;Humidity;BMP_temperature;BMP_pressure;BME280_temperature;BME280_humidity;BME280_pressure;Samples;Min_cycle;Max_cycle;Signal;HPM_P1;HPM_P2
2022/12/05 00:00:15;;;;;;;23.77;13.70;;;;;;;6.84;59.53;97247.88;5022445;28;20210;-69
2022/12/05 00:02:41;;;;;;;26.00;13.97;;;;;;;6.82;60.25;97241.16;5027912;28;20184;-69
2022/12/05 00:05:07;;;;;;;26.27;14.47;;;;;;;6.82;59.54;97243.78;5008135;28;20433;-69
2022/12/05 00:07:32;;;;;;;24.40;14.70;;;;;;;6.88;60.21;97238.88;5033892;28;20176;-70
2022/12/05 00:09:58;;;;;;;23.50;13.70;;;;;;;6.92;59.35;97239.44;5021317;28;20526;-70
2022/12/05 00:12:23;;;;;;;23.70;13.80;;;;;;;6.87;59.62;97234.63;5030411;28;20265;-69
2022/12/05 00:14:49;;;;;;;22.07;12.63;;;;;;;6.82;59.45;97248.97;5030759;28;20196;-68
2022/12/05 00:17:14;;;;;;;23.90;13.83;;;;;;;6.64;59.86;97248.72;5031299;28;20208;-68
2022/12/05 00:19:39;;;;;;;23.70;13.83;;;;;;;6.68;59.87;97242.31;5030267;28;20214;-69
2022/12/05 00:22:05;;;;;;;19.83;12.60;;;;;;;6.74;59.84;97253.03;5028225;28;20207;-68
2022/12/05 00:24:30;;;;;;;25.47;13.70;;;;;;;6.70;60.13;97237.78;5030746;28;20182;-68
2022/12/05 00:26:56;;;;;;;21.07;13.23;;;;;;;6.75;59.88;97239.06;5031497;28;20187;-69
2022/12/05 00:29:21;;;;;;;23.47;11.90;;;;;;;6.77;59.77;97244.16;5031285;28;20651;-68
2022/12/05 00:31:47;;;;;;;23.03;13.20;;;;;;;6.77;59.73;97244.16;5031444;28;20187;-70
2022/12/05 00:34:12;;;;;;;24.80;13.03;;;;;;;6.71;59.96;97258.50;5030980;28;20184;-70
2022/12/05 00:36:38;;;;;;;25.23;13.37;;;;;;;6.80;60.04;97256.94;5029915;28;20290;-70
2022/12/05 00:39:07;;;;;;;23.17;12.60;;;;;;;6.86;59.97;97247.78;5031526;28;20303;-70
2022/12/05 00:41:32;;;;;;;24.73;12.90;;;;;;;6.82;60.05;97249.78;5025142;28;20190;-70
2022/12/05 00:44:00;;;;;;;22.63;12.17;;;;;;;6.73;60.00;97245.34;5032046;28;21027;-70
2022/12/05 00:46:27;;;;;;;24.03;13.20;;;;;;;6.82;59.65;97256.78;5038716;28;20219;-69
2022/12/05 00:48:53;;;;;;;25.43;12.00;;;;;;;6.92;59.54;97257.69;5031060;28;20448;-70
2022/12/05 00:51:22;;;;;;;20.20;11.60;;;;;;;6.95;59.28;97257.44;5025292;28;20430;-69
2022/12/05 00:53:47;;;;;;;26.87;14.50;;;;;;;6.90;59.65;97256.97;5035412;28;20476;-70
2022/12/05 00:56:17;;;;;;;27.03;12.13;;;;;;;6.93;59.25;97266.34;5030103;28;20981;-70
2022/12/05 00:58:43;;;;;;;25.03;13.50;;;;;;;6.97;59.52;97275.53;5031030;28;20211;-69
2022/12/05 01:01:15;;;;;;;23.37;13.47;;;;;;;6.94;59.92;97267.97;5030628;28;20427;-69
2022/12/05 01:03:42;;;;;;;22.87;12.47;;;;;;;6.91;60.10;97272.50;5030024;28;20476;-70
2022/12/05 01:06:09;;;;;;;25.47;13.40;;;;;;;6.96;59.42;97284.28;5030448;28;20520;-70
2022/12/05 01:08:35;;;;;;;23.10;12.90;;;;;;;6.98;59.34;97279.78;5028984;28;20442;-69
2022/12/05 01:11:01;;;;;;;22.73;13.03;;;;;;;6.94;59.64;97292.25;5030842;28;20929;-71
2022/12/05 01:13:27;;;;;;;23.37;12.50;;;;;;;6.95;59.78;97293.91;5029260;28;20423;-70
2022/12/05 01:15:53;;;;;;;19.97;11.77;;;;;;;6.92;59.79;97301.97;5029749;28;20426;-70
2022/12/05 01:18:20;;;;;;;21.47;12.67;;;;;;;6.92;59.96;97312.41;5030189;28;20548;-70
2022/12/05 01:20:46;;;;;;;21.73;11.97;;;;;;;6.90;60.06;97294.28;5025632;28;20592;-71
2022/12/05 01:23:12;;;;;;;22.77;12.17;;;;;;;6.99;59.85;97289.25;5030210;28;20565;-70
2022/12/05 01:25:42;;;;;;;19.90;10.83;;;;;;;7.01;59.21;97295.19;5030598;28;20484;-70
2022/12/05 01:28:08;;;;;;;19.50;10.50;;;;;;;7.01;59.08;97289.97;5028251;28;20346;-70
2022/12/05 01:30:38;;;;;;;20.40;10.90;;;;;;;6.93;59.21;97303.63;5033263;28;20953;-70
2022/12/05 01:33:04;;;;;;;19.10;10.30;;;;;;;6.95;59.52;97300.88;5029274;28;20242;-69
2022/12/05 01:35:34;;;;;;;17.90;10.53;;;;;;;6.94;59.46;97296.63;5029963;28;20422;-70
2022/12/05 01:37:59;;;;;;;16.70;10.23;;;;;;;6.96;59.53;97285.13;5031906;28;20220;-70
2022/12/05 01:40:25;;;;;;;20.07;10.90;;;;;;;6.92;59.42;97294.16;5028488;28;20435;-70
2022/12/05 01:42:50;;;;;;;15.63;10.10;;;;;;;6.88;59.81;97308.38;5031639;28;20275;-70
2022/12/05 01:45:21;;;;;;;17.90;10.57;;;;;;;6.94;59.60;97314.88;5037943;28;20551;-70
2022/12/05 01:47:47;;;;;;;17.07;10.17;;;;;;;6.97;59.35;97314.63;5027896;28;20282;-68
2022/12/05 01:50:12;;;;;;;17.10;9.40;;;;;;;6.78;58.99;97321.34;5025474;28;20989;-70
2022/12/05 01:52:38;;;;;;;15.83;9.73;;;;;;;6.84;59.66;97330.44;5030615;28;20267;-70
2022/12/05 01:55:11;;;;;;;19.70;10.80;;;;;;;6.75;60.09;97326.81;5035556;28;20188;-71
2022/12/05 01:57:36;;;;;;;20.77;10.90;;;;;;;6.66;59.99;97328.38;5029245;28;20695;-70
2022/12/05 02:00:09;;;;;;;19.37;10.37;;;;;;;6.70;60.60;97308.09;5030394;28;20465;-69
2022/12/05 02:02:34;;;;;;;22.50;11.70;;;;;;;6.74;60.22;97314.72;5029015;28;20191;-71
2022/12/05 02:05:19;;;;;;;19.37;10.30;;;;;;;6.66;60.28;97317.97;5030302;28;20877;-70
2022/12/05 02:07:45;;;;;;;21.67;10.27;;;;;;;6.51;60.72;97321.78;5034591;28;20191;-69
2022/12/05 02:10:11;;;;;;;20.23;11.60;;;;;;;6.49;60.99;97319.34;5029005;28;20419;-69
2022/12/05 02:12:37;;;;;;;19.93;11.37;;;;;;;6.53;61.08;97322.50;5026420;28;20496;-71
2022/12/05 02:15:18;;;;;;;20.37;11.30;;;;;;;6.61;61.16;97335.75;5029096;28;20605;-70
2022/12/05 02:17:49;;;;;;;18.40;10.97;;;;;;;6.63;61.27;97327.81;5028535;28;20299;-70
2022/12/05 02:20:27;;;;;;;20.17;11.30;;;;;;;6.58;60.94;97334.19;5025613;28;20427;-68
2022/12/05 02:23:06;;;;;;;20.70;11.43;;;;;;;6.66;61.01;97335.38;5028983;28;20521;-70
2022/12/05 02:26:27;;;;;;;20.30;10.40;;;;;;;6.73;60.99;97333.91;5030317;28;20438;-70
2022/12/05 02:29:25;;;;;;;23.77;12.43;;;;;;;6.74;60.99;97352.00;4985797;28;20443;-70
2022/12/05 02:31:59;;;;;;;19.90;11.10;;;;;;;6.78;61.07;97363.03;4996085;28;20422;-70
2022/12/05 02:34:32;;;;;;;25.80;12.90;;;;;;;6.60;61.37;97368.78;5028661;28;20443;-69
2022/12/05 02:37:28;;;;;;;22.40;11.40;;;;;;;6.64;61.45;97371.94;5029595;28;20476;-70
2022/12/05 02:39:58;;;;;;;21.90;11.53;;;;;;;6.69;61.68;97361.16;5016726;28;20434;-69
2022/12/05 02:42:31;;;;;;;21.53;12.00;;;;;;;6.65;61.91;97370.19;5030922;28;20430;-69
2022/12/05 02:45:06;;;;;;;26.83;13.33;;;;;;;6.69;61.88;97376.78;5028994;28;20437;-69
2022/12/05 02:47:35;;;;;;;26.93;12.30;;;;;;;6.73;61.88;97373.84;5027982;28;20422;-70
2022/12/05 02:50:02;;;;;;;22.70;11.87;;;;;;;6.69;62.00;97376.78;5020911;28;20435;-71
2022/12/05 02:52:29;;;;;;;23.17;12.60;;;;;;;6.43;62.87;97379.69;5011047;28;20509;-70
2022/12/05 02:54:55;;;;;;;27.40;13.27;;;;;;;6.48;62.86;97380.16;5035021;28;20453;-69
2022/12/05 02:57:22;;;;;;;25.17;14.10;;;;;;;6.49;63.12;97370.59;5031343;28;20466;-68
2022/12/05 02:59:47;;;;;;;26.90;13.00;;;;;;;6.54;62.97;97374.50;5029093;28;20965;-68
2022/12/05 03:02:25;;;;;;;28.00;13.27;;;;;;;6.50;63.35;97374.81;5032989;28;20485;-70
2022/12/05 03:04:51;;;;;;;23.90;12.83;;;;;;;6.52;63.12;97363.34;5033525;28;20179;-70
2022/12/05 03:07:19;;;;;;;25.67;13.80;;;;;;;6.64;63.45;97360.72;5032414;28;20810;-70
2022/12/05 03:09:50;;;;;;;23.67;13.00;;;;;;;6.70;63.20;97350.63;5032187;28;20227;-69
2022/12/05 03:12:25;;;;;;;29.67;13.90;;;;;;;6.77;62.52;97350.97;5031542;28;20423;-69
2022/12/05 03:15:00;;;;;;;25.27;13.50;;;;;;;6.84;62.99;97346.09;5033449;28;20515;-69
2022/12/05 03:17:29;;;;;;;24.70;12.57;;;;;;;6.83;62.53;97345.25;5031349;28;20500;-69
2022/12/05 03:20:01;;;;;;;26.93;13.00;;;;;;;6.74;62.63;97340.78;5028857;28;20530;-69
2022/12/05 03:22:32;;;;;;;26.53;14.17;;;;;;;6.88;62.45;97342.25;5029022;28;20510;-69
2022/12/05 03:24:58;;;;;;;25.03;11.87;;;;;;;6.97;62.09;97344.13;5022654;28;20438;-70
2022/12/05 03:27:43;;;;;;;22.23;12.30;;;;;;;6.91;62.73;97348.06;5031274;28;20419;-69
2022/12/05 03:30:20;;;;;;;31.63;13.87;;;;;;;6.96;62.12;97339.88;5017201;28;20441;-69
2022/12/05 03:32:59;;;;;;;24.70;11.90;;;;;;;6.91;62.19;97347.22;5029641;28;20813;-69
2022/12/05 03:35:35;;;;;;;30.53;13.90;;;;;;;6.95;61.99;97358.22;5014933;28;20445;-69
2022/12/05 03:38:10;;;;;;;29.20;13.67;;;;;;;6.94;62.16;97366.97;5037917;28;20977;-69
2022/12/05 03:40:47;;;;;;;20.70;11.93;;;;;;;6.86;62.48;97355.41;5032954;28;20476;-71
2022/12/05 03:43:41;;;;;;;28.30;14.27;;;;;;;6.87;62.27;97349.25;5031509;28;20995;-70
2022/12/05 03:46:29;;;;;;;27.40;13.47;;;;;;;6.98;62.94;97344.94;5027951;28;20427;-70
2022/12/05 03:49:08;;;;;;;23.50;13.33;;;;;;;6.93;62.50;97354.94;5032470;28;20473;-71
2022/12/05 03:51:37;;;;;;;21.97;12.03;;;;;;;6.93;62.69;97357.53;5026212;28;20521;-71
2022/12/05 03:54:11;;;;;;;23.73;12.93;;;;;;;6.99;62.62;97359.63;5036626;28;20440;-72
2022/12/05 03:56:42;;;;;;;23.87;12.93;;;;;;;7.00;62.47;97361.28;5022217;28;20485;-71
2022/12/05 03:59:26;;;;;;;23.97;12.80;;;;;;;7.10;62.20;97354.34;5030733;28;20466;-70
2022/12/05 04:01:54;;;;;;;25.90;12.63;;;;;;;7.16;61.95;97353.84;5030978;28;20488;-71
2022/12/05 04:04:35;;;;;;;25.60;12.80;;;;;;;7.16;62.12;97348.66;5014392;28;20434;-71
2022/12/05 04:07:03;;;;;;;23.77;12.37;;;;;;;7.21;62.10;97338.63;5030604;28;20472;-70
2022/12/05 04:09:34;;;;;;;24.43;13.00;;;;;;;7.17;61.84;97336.44;5029899;28;20451;-69
2022/12/05 04:12:07;;;;;;;24.30;11.57;;;;;;;7.09;61.94;97339.66;5031067;28;20461;-70
2022/12/05 04:14:38;;;;;;;28.10;12.80;;;;;;;7.21;62.08;97345.66;5006451;28;20426;-70
2022/12/05 04:17:08;;;;;;;22.90;12.00;;;;;;;7.15;61.77;97344.38;5031563;28;20565;-71
2022/12/05 04:22:24;;;;;;;23.13;12.23;;;;;;;7.10;62.37;97356.16;5030799;28;20477;-70
2022/12/05 04:27:49;;;;;;;20.57;12.30;;;;;;;7.21;62.20;97354.28;5031292;28;20187;-70
2022/12/05 04:30:23;;;;;;;20.33;11.50;;;;;;;7.27;61.85;97362.56;5030243;28;20844;-68
2022/12/05 04:33:01;;;;;;;20.67;11.60;;;;;;;7.26;61.64;97366.13;5030436;28;20583;-70
2022/12/05 04:35:49;;;;;;;22.80;11.93;;;;;;;7.29;61.91;97371.09;5030161;28;20964;-70
2022/12/05 04:38:40;;;;;;;21.60;12.10;;;;;;;7.28;61.80;97377.25;5022221;28;20474;-71
2022/12/05 04:41:10;;;;;;;25.97;12.27;;;;;;;7.17;62.27;97368.53;5010519;28;20440;-70
2022/12/05 04:43:38;;;;;;;22.40;12.60;;;;;;;7.27;62.26;97367.78;5027212;28;20430;-70
2022/12/05 04:46:07;;;;;;;24.77;12.03;;;;;;;7.26;61.78;97381.75;5030295;28;20946;-70
2022/12/05 04:48:35;;;;;;;25.17;12.70;;;;;;;7.16;61.92;97381.69;5031415;28;21010;-71
2022/12/05 04:51:01;;;;;;;26.80;12.60;;;;;;;7.17;62.22;97372.91;5041406;28;20770;-71
2022/12/05 04:53:28;;;;;;;21.50;12.10;;;;;;;7.27;61.99;97378.22;5033847;28;20430;-71
2022/12/05 04:55:57;;;;;;;23.40;12.50;;;;;;;7.29;61.72;97382.34;5033531;28;20964;-70
2022/12/05 04:58:24;;;;;;;21.97;12.20;;;;;;;7.26;61.62;97386.97;5028003;28;21159;-71
2022/12/05 05:00:55;;;;;;;23.53;13.00;;;;;;;7.18;61.57;97380.59;5030930;28;20423;-70
2022/12/05 05:03:27;;;;;;;26.80;13.03;;;;;;;7.27;61.38;97399.06;5028881;28;20430;-70
2022/12/05 05:05:54;;;;;;;21.20;12.07;;;;;;;7.13;61.89;97393.19;5033138;28;20517;-71
2022/12/05 05:08:23;;;;;;;24.47;12.43;;;;;;;7.15;62.04;97401.72;5035686;28;20449;-71
2022/12/05 05:11:14;;;;;;;21.40;11.60;;;;;;;7.06;61.88;97392.03;5034586;28;20442;-71
2022/12/05 05:13:40;;;;;;;23.70;11.60;;;;;;;7.08;62.22;97395.34;5012962;28;20869;-71
2022/12/05 05:16:06;;;;;;;21.80;11.77;;;;;;;7.05;62.78;97390.41;5030123;28;20422;-70
2022/12/05 05:18:31;;;;;;;20.50;12.50;;;;;;;7.15;62.70;97388.69;5030301;28;20697;-71
2022/12/05 05:20:56;;;;;;;20.20;12.10;;;;;;;7.16;62.16;97395.56;5026928;28;20423;-71
2022/12/05 05:23:22;;;;;;;21.87;12.07;;;;;;;7.01;62.26;97405.44;5029150;28;20605;-71
2022/12/05 05:25:51;;;;;;;21.57;13.27;;;;;;;6.87;62.41;97409.19;5029947;28;20271;-71
2022/12/05 05:28:17;;;;;;;21.33;11.33;;;;;;;6.99;63.34;97411.75;5029811;28;20196;-70
2022/12/05 05:30:42;;;;;;;21.40;12.23;;;;;;;6.95;63.02;97419.00;5028716;28;20430;-71
2022/12/05 05:33:08;;;;;;;19.87;11.70;;;;;;;6.95;62.67;97436.38;5022229;28;20306;-70
2022/12/05 05:35:36;;;;;;;21.57;11.30;;;;;;;6.93;62.24;97428.69;5030012;28;20328;-70
2022/12/05 05:38:02;;;;;;;22.93;11.63;;;;;;;6.95;62.95;97432.00;5034260;28;20227;-71
2022/12/05 05:40:27;;;;;;;20.07;12.13;;;;;;;6.97;63.08;97421.47;5032924;28;20426;-70
2022/12/05 05:42:53;;;;;;;20.83;12.60;;;;;;;6.99;62.55;97436.03;5021477;28;20180;-70
2022/12/05 05:45:18;;;;;;;20.70;11.77;;;;;;;6.99;63.18;97435.19;5028288;28;20246;-69
2022/12/05 05:47:44;;;;;;;19.57;12.03;;;;;;;7.04;62.47;97440.88;5029701;28;20184;-69
2022/12/05 05:50:10;;;;;;;22.37;11.93;;;;;;;7.03;62.45;97447.03;5026643;28;20188;-71
2022/12/05 05:52:36;;;;;;;17.50;11.70;;;;;;;7.06;62.36;97439.78;5029870;28;20257;-69
2022/12/05 05:55:03;;;;;;;23.43;12.97;;;;;;;7.14;62.38;97420.94;5029699;28;20438;-69
2022/12/05 05:57:29;;;;;;;20.83;12.40;;;;;;;7.24;61.89;97426.22;5033807;28;20512;-68
2022/12/05 05:59:55;;;;;;;27.80;13.00;;;;;;;7.27;61.88;97425.13;5029718;28;20964;-69
2022/12/05 06:02:20;;;;;;;20.70;12.07;;;;;;;7.32;61.42;97412.53;5029031;28;20184;-68
2022/12/05 06:04:46;;;;;;;23.10;11.37;;;;;;;7.27;61.05;97410.31;5029411;28;20585;-68
2022/12/05 06:07:11;;;;;;;21.50;12.03;;;;;;;7.25;61.53;97420.03;5029427;28;20269;-69
2022/12/05 06:09:37;;;;;;;18.90;11.13;;;;;;;7.06;61.75;97418.09;5029998;28;20305;-69
2022/12/05 06:12:03;;;;;;;21.53;12.13;;;;;;;7.02;62.04;97432.34;5030475;28;20198;-68
2022/12/05 06:14:28;;;;;;;21.23;11.53;;;;;;;7.02;62.42;97433.16;5028583;28;20184;-69
2022/12/05 06:16:53;;;;;;;22.97;11.73;;;;;;;7.03;62.83;97436.63;5028587;28;20268;-69
2022/12/05 06:19:19;;;;;;;20.00;11.17;;;;;;;7.12;62.50;97432.44;5029065;28;20621;-67
2022/12/05 06:21:44;;;;;;;22.90;12.17;;;;;;;7.21;62.06;97429.88;5029937;28;20238;-68
2022/12/05 06:24:10;;;;;;;26.93;13.90;;;;;;;7.23;61.32;97441.03;5028091;28;20202;-69
2022/12/05 06:26:35;;;;;;;21.50;13.93;;;;;;;7.16;61.60;97449.47;5029139;28;20211;-68
2022/12/05 06:29:01;;;;;;;19.77;12.97;;;;;;;7.04;61.80;97464.34;5028193;28;20293;-69
2022/12/05 06:31:29;;;;;;;23.37;12.70;;;;;;;7.11;62.38;97462.88;5029449;28;20286;-69
2022/12/05 06:33:58;;;;;;;22.10;12.70;;;;;;;6.97;61.86;97466.59;5030674;28;20199;-68
2022/12/05 06:36:23;;;;;;;23.77;13.17;;;;;;;7.03;62.51;97470.50;5033037;28;20481;-69
2022/12/05 06:38:48;;;;;;;19.40;12.13;;;;;;;6.96;62.69;97475.38;5024324;28;20450;-68
2022/12/05 06:41:16;;;;;;;20.93;11.87;;;;;;;6.96;62.83;97474.53;5029583;28;20184;-69
2022/12/05 06:43:42;;;;;;;19.30;11.87;;;;;;;7.10;61.90;97483.88;5031786;28;20192;-69
2022/12/05 06:46:09;;;;;;;22.50;12.10;;;;;;;7.06;62.13;97484.09;5031719;28;20418;-70
2022/12/05 06:48:35;;;;;;;20.77;12.00;;;;;;;7.03;62.27;97481.72;5031875;28;20573;-68
2022/12/05 06:51:00;;;;;;;22.80;12.40;;;;;;;7.00;62.48;97481.16;5024533;28;20537;-70
2022/12/05 06:53:26;;;;;;;20.07;12.40;;;;;;;7.00;62.60;97475.94;5023672;28;20320;-70
2022/12/05 06:56:00;;;;;;;24.53;12.43;;;;;;;7.08;62.45;97481.34;5028278;28;20199;-70
2022/12/05 06:58:26;;;;;;;21.10;12.30;;;;;;;7.19;62.28;97486.53;5040654;28;20566;-70
2022/12/05 07:03:35;;;;;;;20.80;13.27;;;;;;;7.20;62.21;97493.41;5029311;28;20661;-69
2022/12/05 07:06:02;;;;;;;20.93;12.17;;;;;;;7.16;62.34;97486.81;5021804;28;20422;-69
2022/12/05 07:08:27;;;;;;;21.20;12.30;;;;;;;7.24;61.86;97483.59;5035718;28;20669;-69
2022/12/05 07:10:53;;;;;;;20.60;11.90;;;;;;;7.30;62.12;97479.66;5042695;28;20433;-68
2022/12/05 07:13:18;;;;;;;22.07;12.03;;;;;;;7.29;62.18;97478.00;5033037;28;20195;-71
2022/12/05 07:15:48;;;;;;;19.80;11.87;;;;;;;7.18;62.39;97494.47;5040394;28;20191;-70
2022/12/05 07:18:14;;;;;;;22.47;12.70;;;;;;;7.17;62.61;97501.50;5035506;28;20252;-68
2022/12/05 07:20:40;;;;;;;30.97;13.63;;;;;;;7.27;62.59;97513.78;5046080;28;20426;-69
2022/12/05 07:23:05;;;;;;;20.67;12.50;;;;;;;7.34;62.45;97510.56;5032360;28;20449;-68
2022/12/05 07:25:31;;;;;;;31.53;12.63;;;;;;;7.37;61.90;97517.28;5001268;28;20241;-68
2022/12/05 07:27:56;;;;;;;24.10;12.17;;;;;;;7.44;62.08;97515.00;5034878;28;20765;-68
2022/12/05 07:30:21;;;;;;;22.93;12.43;;;;;;;7.37;62.07;97519.91;5036850;28;20196;-70
2022/12/05 07:32:47;;;;;;;21.00;11.40;;;;;;;7.37;62.51;97519.91;5025076;28;20200;-70
2022/12/05 07:35:12;;;;;;;24.20;12.07;;;;;;;7.36;62.70;97526.06;5027004;28;20209;-70
2022/12/05 07:37:38;;;;;;;19.80;11.70;;;;;;;7.34;62.48;97514.94;5023511;28;20216;-69
2022/12/05 07:40:04;;;;;;;16.97;10.73;;;;;;;7.35;62.54;97517.44;5025190;28;20192;-69
2022/12/05 07:42:29;;;;;;;16.90;10.43;;;;;;;7.43;62.77;97514.19;5026955;28;20274;-69
2022/12/05 07:44:55;;;;;;;16.37;10.63;;;;;;;7.40;62.00;97509.22;5034246;28;20421;-70
2022/12/05 07:47:20;;;;;;;13.17;9.63;;;;;;;7.41;62.35;97505.66;5037922;28;20266;-70
2022/12/05 07:49:46;;;;;;;15.90;10.90;;;;;;;7.49;61.73;97513.69;5020489;28;20290;-71
2022/12/05 07:52:11;;;;;;;14.43;10.57;;;;;;;7.44;61.96;97518.44;5043059;28;20201;-70
2022/12/05 07:54:37;;;;;;;20.67;11.83;;;;;;;7.49;62.08;97518.91;5021477;28;20184;-69
2022/12/05 07:57:02;;;;;;;17.23;10.53;;;;;;;7.48;61.67;97525.06;5040842;28;20217;-69
2022/12/05 07:59:27;;;;;;;17.73;12.10;;;;;;;7.49;62.58;97531.94;5036475;28;20207;-70
2022/12/05 08:01:53;;;;;;;21.87;14.40;;;;;;;7.52;62.48;97539.53;5026975;28;20270;-69
2022/12/05 08:04:18;;;;;;;26.77;15.57;;;;;;;7.65;62.86;97528.09;5018487;28;20184;-69
2022/12/05 08:06:44;;;;;;;19.67;12.30;;;;;;;7.69;62.64;97521.66;5024287;28;20253;-70
2022/12/05 08:09:09;;;;;;;19.10;12.70;;;;;;;7.76;62.46;97528.03;5022911;28;20275;-68
2022/12/05 08:11:35;;;;;;;18.43;10.97;;;;;;;7.69;62.46;97538.16;5023699;28;20195;-69
2022/12/05 08:14:02;;;;;;;21.80;10.20;;;;;;;7.65;62.18;97534.13;5025931;28;20184;-70
2022/12/05 08:16:29;;;;;;;20.53;10.50;;;;;;;7.59;61.86;97536.41;5011146;28;20560;-69
2022/12/05 08:18:59;;;;;;;16.60;11.53;;;;;;;7.64;61.78;97536.88;5015874;28;20442;-70
2022/12/05 08:21:25;;;;;;;13.63;9.70;;;;;;;7.65;61.93;97543.75;5021879;28;20422;-70
2022/12/05 08:23:51;;;;;;;14.20;10.03;;;;;;;7.54;61.72;97552.44;5019806;28;20971;-70
2022/12/05 08:26:23;;;;;;;14.77;9.43;;;;;;;7.46;62.05;97547.84;5025635;28;20185;-69
2022/12/05 08:29:10;;;;;;;14.80;10.07;;;;;;;7.53;62.67;97556.00;5017106;28;20298;-70
2022/12/05 08:31:39;;;;;;;14.37;10.10;;;;;;;7.55;62.12;97548.06;4995620;28;20767;-69
2022/12/05 08:34:05;;;;;;;18.70;10.73;;;;;;;7.45;62.56;97554.00;5020921;28;20431;-70
2022/12/05 08:36:31;;;;;;;14.80;10.03;;;;;;;7.52;62.67;97557.78;5026023;28;20835;-70
2022/12/05 08:38:58;;;;;;;15.63;10.73;;;;;;;7.61;62.61;97553.59;5011918;28;20338;-70
2022/12/05 08:41:27;;;;;;;17.27;11.30;;;;;;;7.71;62.60;97564.09;5030523;28;20433;-69
2022/12/05 08:43:53;;;;;;;17.53;11.17;;;;;;;7.75;61.94;97570.72;5015867;28;21011;-70
2022/12/05 08:46:18;;;;;;;16.00;10.80;;;;;;;7.84;61.72;97576.97;5032577;28;20462;-69
2022/12/05 08:48:44;;;;;;;15.73;10.90;;;;;;;7.86;61.64;97572.47;5019650;28;20485;-69
2022/12/05 08:51:11;;;;;;;16.00;11.10;;;;;;;7.98;62.47;97570.63;5018890;28;20220;-70
2022/12/05 08:53:38;;;;;;;14.83;9.90;;;;;;;8.00;61.35;97571.31;5021426;28;20191;-70
2022/12/05 08:56:06;;;;;;;19.87;11.03;;;;;;;8.03;61.47;97565.00;5014277;28;20469;-67
2022/12/05 08:58:31;;;;;;;17.90;11.33;;;;;;;8.11;61.65;97563.41;5026092;28;20453;-69
2022/12/05 09:01:15;;;;;;;19.40;11.47;;;;;;;8.20;61.73;97558.38;5020986;28;20531;-68
2022/12/05 09:03:41;;;;;;;14.70;10.13;;;;;;;8.27;61.33;97564.75;5017880;28;20550;-69
2022/12/05 09:06:12;;;;;;;15.73;9.53;;;;;;;8.29;60.33;97575.91;5021813;28;20435;-70
2022/12/05 09:08:38;;;;;;;16.10;10.43;;;;;;;8.35;60.87;97579.78;5036402;28;20452;-70
2022/12/05 09:11:07;;;;;;;13.30;9.70;;;;;;;8.30;60.46;97588.81;5036314;28;20802;-70
2022/12/05 09:13:33;;;;;;;14.57;10.70;;;;;;;8.27;60.50;97590.88;5025825;28;20424;-69
2022/12/05 09:16:07;;;;;;;19.57;11.33;;;;;;;8.28;60.78;97593.34;5031029;28;20435;-70
2022/12/05 09:18:32;;;;;;;16.77;10.03;;;;;;;8.29;60.83;97596.78;5027395;28;20448;-70
2022/12/05 09:21:07;;;;;;;12.40;9.30;;;;;;;8.33;61.05;97597.38;5038717;28;20418;-70
2022/12/05 09:23:33;;;;;;;17.33;10.50;;;;;;;8.41;61.08;97602.75;5022247;28;20219;-70
2022/12/05 09:26:01;;;;;;;16.60;11.13;;;;;;;8.52;61.24;97604.50;5027543;28;20423;-70
2022/12/05 09:28:27;;;;;;;18.50;11.27;;;;;;;8.62;60.86;97596.72;5032773;28;20264;-69
2022/12/05 09:30:57;;;;;;;15.40;10.07;;;;;;;8.69;60.50;97610.91;5029983;28;20438;-71
2022/12/05 09:33:23;;;;;;;13.67;9.03;;;;;;;8.67;60.70;97608.44;5032842;28;20438;-69
2022/12/05 09:35:48;;;;;;;13.63;9.27;;;;;;;8.70;59.82;97615.19;5032371;28;20783;-70
2022/12/05 09:38:15;;;;;;;23.40;10.53;;;;;;;8.80;59.96;97623.09;5035091;28;20251;-70
2022/12/05 09:40:44;;;;;;;14.63;8.97;;;;;;;8.83;59.55;97621.03;5034077;28;20465;-70
2022/12/05 09:43:24;;;;;;;11.87;8.00;;;;;;;8.80;59.88;97616.06;5025452;28;20279;-71
2022/12/05 09:45:59;;;;;;;14.23;8.67;;;;;;;8.85;60.01;97623.50;5018510;28;20777;-70
2022/12/05 09:48:24;;;;;;;11.50;8.97;;;;;;;8.88;59.92;97620.63;5023448;28;20447;-69
2022/12/05 09:51:01;;;;;;;13.20;8.60;;;;;;;8.83;59.72;97628.03;5017666;28;20430;-70
2022/12/05 09:53:40;;;;;;;13.10;9.77;;;;;;;8.90;59.73;97623.94;5031203;28;20179;-69
2022/12/05 09:56:09;;;;;;;10.60;8.60;;;;;;;8.95;60.01;97624.38;5030472;28;20427;-70
2022/12/05 09:58:46;;;;;;;8.83;6.93;;;;;;;9.00;59.78;97616.97;5022255;28;20453;-70
2022/12/05 10:01:30;;;;;;;9.87;7.03;;;;;;;9.04;59.29;97617.53;5011142;28;20427;-70
2022/12/05 10:04:33;;;;;;;8.40;6.23;;;;;;;9.06;59.49;97616.44;5025226;28;20430;-69
2022/12/05 10:07:14;;;;;;;8.80;6.57;;;;;;;9.08;59.21;97613.69;5020761;28;20925;-70
2022/12/05 10:09:58;;;;;;;7.20;5.77;;;;;;;9.10;59.14;97627.47;5023334;28;21044;-70
2022/12/05 10:12:34;;;;;;;10.97;7.60;;;;;;;9.09;59.07;97617.13;5017141;28;20506;-69
2022/12/05 10:15:08;;;;;;;8.73;6.33;;;;;;;9.11;58.73;97617.81;5024370;28;20426;-70
2022/12/05 10:17:36;;;;;;;7.73;6.50;;;;;;;9.15;58.67;97616.59;5029450;28;20467;-70
2022/12/05 10:20:05;;;;;;;8.80;6.50;;;;;;;9.16;58.82;97621.69;5040855;28;20441;-70
2022/12/05 10:22:42;;;;;;;8.10;6.47;;;;;;;9.15;59.42;97616.59;5022754;28;20472;-70
2022/12/05 10:25:09;;;;;;;6.87;6.17;;;;;;;9.19;59.03;97618.00;5022571;28;20441;-70
2022/12/05 10:27:37;;;;;;;8.10;6.97;;;;;;;9.25;58.92;97607.00;5035920;28;20525;-70
2022/12/05 10:30:12;;;;;;;7.50;6.10;;;;;;;9.32;58.76;97607.28;5043645;28;20445;-69
2022/12/05 10:32:50;;;;;;;6.83;6.13;;;;;;;9.40;58.46;97604.00;5028096;28;20528;-70
2022/12/05 10:35:29;;;;;;;7.10;5.80;;;;;;;9.51;58.18;97596.03;5043963;28;20600;-71
2022/12/05 10:38:02;;;;;;;8.60;6.13;;;;;;;9.58;57.91;97599.75;5003275;28;22122;-69
2022/12/05 10:40:42;;;;;;;6.33;5.40;;;;;;;9.65;57.66;97590.38;5037711;28;20437;-70
2022/12/05 10:43:09;;;;;;;6.67;5.20;;;;;;;9.75;57.10;97589.56;5037602;28;20424;-69
2022/12/05 10:45:40;;;;;;;8.37;6.17;;;;;;;9.72;56.54;97588.06;5019394;28;20444;-70
2022/12/05 10:48:10;;;;;;;7.03;5.60;;;;;;;9.79;56.17;97598.81;5038985;28;20534;-69
2022/12/05 10:50:37;;;;;;;8.27;6.17;;;;;;;9.82;55.71;97593.28;5042117;28;20506;-70
2022/12/05 10:53:04;;;;;;;7.33;5.67;;;;;;;9.82;55.09;97590.69;5001479;28;20450;-71
2022/12/05 10:55:36;;;;;;;8.43;6.00;;;;;;;9.88;55.52;97602.38;5020191;28;20434;-70
2022/12/05 10:58:22;;;;;;;7.27;5.70;;;;;;;9.93;55.61;97593.16;5010026;28;20498;-69
2022/12/05 11:00:50;;;;;;;6.00;5.40;;;;;;;9.96;55.43;97592.84;5029465;28;20437;-70
2022/12/05 11:03:26;;;;;;;5.90;5.30;;;;;;;9.95;54.80;97585.16;5032802;28;20420;-70
2022/12/05 11:06:16;;;;;;;5.80;4.87;;;;;;;10.02;55.26;97586.22;5025819;28;20432;-70
2022/12/05 11:08:41;;;;;;;8.10;5.20;;;;;;;10.06;54.44;97589.44;5034572;28;20855;-70
2022/12/05 11:11:18;;;;;;;8.93;5.90;;;;;;;10.11;54.66;97593.28;5039692;28;20428;-68
2022/12/05 11:14:00;;;;;;;6.87;5.50;;;;;;;10.18;54.48;97590.94;5034620;28;20188;-68
2022/12/05 11:16:29;;;;;;;5.77;5.17;;;;;;;10.20;54.27;97590.78;5025865;28;20464;-69
2022/12/05 11:18:54;;;;;;;8.83;4.57;;;;;;;10.19;54.53;97589.13;5039420;28;20956;-69
2022/12/05 11:21:20;;;;;;;5.60;4.90;;;;;;;10.22;54.33;97579.19;5045451;28;20433;-70
2022/12/05 11:23:46;;;;;;;10.53;4.90;;;;;;;10.34;54.25;97582.47;5032034;28;20196;-69
2022/12/05 11:26:18;;;;;;;5.80;4.57;;;;;;;10.47;53.60;97574.31;5025916;28;20210;-70
2022/12/05 11:28:44;;;;;;;5.40;4.63;;;;;;;10.66;53.01;97580.47;5029589;28;20454;-70
2022/12/05 11:31:15;;;;;;;5.33;4.43;;;;;;;10.98;52.79;97584.47;5032958;28;20430;-68
2022/12/05 11:33:41;;;;;;;8.87;5.17;;;;;;;11.29;51.55;97581.56;5035215;28;20207;-70
2022/12/05 11:36:21;;;;;;;8.50;4.93;;;;;;;11.67;51.42;97572.56;5043641;28;20419;-70
2022/12/05 11:38:46;;;;;;;12.60;5.20;;;;;;;12.16;50.57;97576.59;5044547;28;20586;-70
2022/12/05 11:41:31;;;;;;;5.50;4.17;;;;;;;12.35;49.89;97575.59;5045896;28;20419;-70
2022/12/05 11:44:31;;;;;;;5.20;3.90;;;;;;;12.41;47.05;97582.88;5046302;28;20197;-70
2022/12/05 11:47:09;;;;;;;3.73;3.27;;;;;;;12.53;47.38;97579.97;5047675;28;20436;-70